sensor_id;sensor_type;location;lat;lon;timestamp;P1;durP1;ratioP1;P2;durP2;ratioP2
45620;SDS011;31345;51.522;10.702;2023-06-26T00:00:46;8.20;;;5.93;;
45620;SDS011;31345;51.522;10.702;2023-06-26T00:03:19;7.55;;;5.32;;
45620;SDS011;31345;51.522;10.702;2023-06-26T00:05:51;12.82;;;5.95;;
45620;SDS011;31345;51.522;10.702;2023-06-26T00:08:25;14.07;;;6.38;;
45620;SDS011;31345;51.522;10.702;2023-06-26T00:10:58;11.43;;;5.43;;
45620;SDS011;31345;51.522;10.702;2023-06-26T00:13:30;9.25;;;5.72;;
45620;SDS011;31345;51.522;10.702;2023-06-26T00:16:03;9.55;;;6.25;;
45620;SDS011;31345;51.522;10.702;2023-06-26T00:18:36;12.32;;;6.28;;
45620;SDS011;31345;51.522;10.702;2023-06-26T00:21:08;13.65;;;6.10;;
45620;SDS011;31345;51.522;10.702;2023-06-26T00:23:42;10.77;;;5.68;;
45620;SDS011;31345;51.522;10.702;2023-06-26T00:26:15;15.02;;;6.10;;
45620;SDS011;31345;51.522;10.702;2023-06-26T00:28:47;10.57;;;6.00;;
45620;SDS011;31345;51.522;10.702;2023-06-26T00:31:20;12.45;;;5.18;;
45620;SDS011;31345;51.522;10.702;2023-06-26T00:33:47;14.02;;;5.55;;
45620;SDS011;31345;51.522;10.702;2023-06-26T00:36:21;9.70;;;5.72;;
45620;SDS011;31345;51.522;10.702;2023-06-26T00:38:55;7.88;;;5.72;;
45620;SDS011;31345;51.522;10.702;2023-06-26T00:41:22;9.43;;;4.55;;
45620;SDS011;31345;51.522;10.702;2023-06-26T00:43:55;9.05;;;5.82;;
45620;SDS011;31345;51.522;10.702;2023-06-26T00:46:28;11.02;;;5.40;;
45620;SDS011;31345;51.522;10.702;2023-06-26T00:49:01;10.55;;;6.43;;
45620;SDS011;31345;51.522;10.702;2023-06-26T00:51:35;10.82;;;5.65;;
45620;SDS011;31345;51.522;10.702;2023-06-26T00:54:09;12.15;;;5.47;;
45620;SDS011;31345;51.522;10.702;2023-06-26T00:56:41;11.60;;;6.03;;
45620;SDS011;31345;51.522;10.702;2023-06-26T00:59:14;7.97;;;4.97;;
45620;SDS011;31345;51.522;10.702;2023-06-26T01:01:47;9.48;;;5.30;;
45620;SDS011;31345;51.522;10.702;2023-06-26T01:04:19;12.70;;;5.95;;
45620;SDS011;31345;51.522;10.702;2023-06-26T01:06:47;9.88;;;5.40;;
45620;SDS011;31345;51.522;10.702;2023-06-26T01:09:22;11.88;;;5.40;;
45620;SDS011;31345;51.522;10.702;2023-06-26T01:11:55;12.63;;;5.53;;
45620;SDS011;31345;51.522;10.702;2023-06-26T01:14:28;11.38;;;5.40;;
45620;SDS011;31345;51.522;10.702;2023-06-26T01:17:00;12.25;;;5.65;;
45620;SDS011;31345;51.522;10.702;2023-06-26T01:19:34;12.18;;;6.35;;
45620;SDS011;31345;51.522;10.702;2023-06-26T01:22:02;8.45;;;5.63;;
45620;SDS011;31345;51.522;10.702;2023-06-26T01:24:53;12.82;;;6.20;;
45620;SDS011;31345;51.522;10.702;2023-06-26T01:27:35;9.65;;;5.15;;
45620;SDS011;31345;51.522;10.702;2023-06-26T01:30:03;8.88;;;5.72;;
45620;SDS011;31345;51.522;10.702;2023-06-26T01:32:40;9.05;;;5.88;;
45620;SDS011;31345;51.522;10.702;2023-06-26T01:35:13;9.57;;;5.68;;
45620;SDS011;31345;51.522;10.702;2023-06-26T01:37:47;15.13;;;5.70;;
45620;SDS011;31345;51.522;10.702;2023-06-26T01:40:19;9.27;;;5.35;;
45620;SDS011;31345;51.522;10.702;2023-06-26T01:42:53;10.55;;;5.85;;
45620;SDS011;31345;51.522;10.702;2023-06-26T01:45:27;12.20;;;6.03;;
45620;SDS011;31345;51.522;10.702;2023-06-26T01:48:04;11.90;;;6.20;;
45620;SDS011;31345;51.522;10.702;2023-06-26T01:50:37;10.80;;;6.07;;
45620;SDS011;31345;51.522;10.702;2023-06-26T01:53:12;9.93;;;6.00;;
45620;SDS011;31345;51.522;10.702;2023-06-26T01:55:48;11.60;;;6.53;;
45620;SDS011;31345;51.522;10.702;2023-06-26T01:58:26;7.93;;;6.00;;
45620;SDS011;31345;51.522;10.702;2023-06-26T02:01:00;10.48;;;5.50;;
45620;SDS011;31345;51.522;10.702;2023-06-26T02:03:32;11.63;;;5.38;;
45620;SDS011;31345;51.522;10.702;2023-06-26T02:06:00;13.00;;;5.85;;
45620;SDS011;31345;51.522;10.702;2023-06-26T02:08:32;15.57;;;5.97;;
45620;SDS011;31345;51.522;10.702;2023-06-26T02:11:05;10.82;;;5.53;;
45620;SDS011;31345;51.522;10.702;2023-06-26T02:13:39;8.60;;;5.97;;
45620;SDS011;31345;51.522;10.702;2023-06-26T02:16:11;12.27;;;5.95;;
45620;SDS011;31345;51.522;10.702;2023-06-26T02:18:42;9.52;;;5.18;;
45620;SDS011;31345;51.522;10.702;2023-06-26T02:21:10;11.70;;;5.18;;
45620;SDS011;31345;51.522;10.702;2023-06-26T02:23:37;9.30;;;5.68;;
45620;SDS011;31345;51.522;10.702;2023-06-26T02:26:10;13.85;;;5.70;;
45620;SDS011;31345;51.522;10.702;2023-06-26T02:28:39;11.52;;;6.05;;
45620;SDS011;31345;51.522;10.702;2023-06-26T02:31:11;11.27;;;5.55;;
45620;SDS011;31345;51.522;10.702;2023-06-26T02:33:44;17.55;;;6.03;;
45620;SDS011;31345;51.522;10.702;2023-06-26T02:36:11;15.02;;;6.10;;
45620;SDS011;31345;51.522;10.702;2023-06-26T02:38:45;15.32;;;6.60;;
45620;SDS011;31345;51.522;10.702;2023-06-26T02:41:13;11.32;;;5.57;;
45620;SDS011;31345;51.522;10.702;2023-06-26T02:43:47;9.45;;;5.20;;
45620;SDS011;31345;51.522;10.702;2023-06-26T02:46:15;8.73;;;5.43;;
45620;SDS011;31345;51.522;10.702;2023-06-26T02:48:47;9.05;;;5.63;;
45620;SDS011;31345;51.522;10.702;2023-06-26T02:51:20;8.65;;;4.93;;
45620;SDS011;31345;51.522;10.702;2023-06-26T02:53:53;10.02;;;6.00;;
45620;SDS011;31345;51.522;10.702;2023-06-26T02:56:26;13.20;;;5.65;;
45620;SDS011;31345;51.522;10.702;2023-06-26T02:59:01;11.20;;;5.78;;
45620;SDS011;31345;51.522;10.702;2023-06-26T03:01:34;10.23;;;5.65;;
45620;SDS011;31345;51.522;10.702;2023-06-26T03:04:07;11.98;;;5.65;;
45620;SDS011;31345;51.522;10.702;2023-06-26T03:06:41;10.13;;;5.80;;
45620;SDS011;31345;51.522;10.702;2023-06-26T03:09:13;12.00;;;5.63;;
45620;SDS011;31345;51.522;10.702;2023-06-26T03:11:47;16.83;;;6.53;;
45620;SDS011;31345;51.522;10.702;2023-06-26T03:14:21;13.93;;;5.80;;
45620;SDS011;31345;51.522;10.702;2023-06-26T03:16:54;15.07;;;6.28;;
45620;SDS011;31345;51.522;10.702;2023-06-26T03:19:30;11.65;;;5.88;;
45620;SDS011;31345;51.522;10.702;2023-06-26T03:22:28;10.55;;;5.57;;
45620;SDS011;31345;51.522;10.702;2023-06-26T03:25:01;9.93;;;5.63;;
45620;SDS011;31345;51.522;10.702;2023-06-26T03:27:35;16.67;;;5.95;;
45620;SDS011;31345;51.522;10.702;2023-06-26T03:30:10;10.13;;;6.40;;
45620;SDS011;31345;51.522;10.702;2023-06-26T03:32:45;7.75;;;5.72;;
45620;SDS011;31345;51.522;10.702;2023-06-26T03:35:18;10.77;;;5.45;;
45620;SDS011;31345;51.522;10.702;2023-06-26T03:37:52;15.35;;;5.53;;
45620;SDS011;31345;51.522;10.702;2023-06-26T03:40:19;11.20;;;5.63;;
45620;SDS011;31345;51.522;10.702;2023-06-26T03:42:52;12.85;;;5.80;;
45620;SDS011;31345;51.522;10.702;2023-06-26T03:45:26;16.27;;;6.38;;
45620;SDS011;31345;51.522;10.702;2023-06-26T03:47:59;14.50;;;5.70;;
45620;SDS011;31345;51.522;10.702;2023-06-26T03:50:27;11.90;;;6.18;;
45620;SDS011;31345;51.522;10.702;2023-06-26T03:52:54;13.65;;;5.63;;
45620;SDS011;31345;51.522;10.702;2023-06-26T03:55:27;12.07;;;5.60;;
45620;SDS011;31345;51.522;10.702;2023-06-26T03:57:59;9.50;;;5.90;;
45620;SDS011;31345;51.522;10.702;2023-06-26T04:00:33;11.63;;;5.55;;
45620;SDS011;31345;51.522;10.702;2023-06-26T04:03:06;11.93;;;6.03;;
45620;SDS011;31345;51.522;10.702;2023-06-26T04:05:38;7.45;;;5.43;;
45620;SDS011;31345;51.522;10.702;2023-06-26T04:08:11;14.27;;;5.80;;
45620;SDS011;31345;51.522;10.702;2023-06-26T04:10:38;16.08;;;6.68;;
45620;SDS011;31345;51.522;10.702;2023-06-26T04:13:11;9.80;;;5.60;;
45620;SDS011;31345;51.522;10.702;2023-06-26T04:15:46;10.52;;;5.93;;
45620;SDS011;31345;51.522;10.702;2023-06-26T04:18:18;15.80;;;5.72;;
45620;SDS011;31345;51.522;10.702;2023-06-26T04:21:04;7.95;;;6.00;;
45620;SDS011;31345;51.522;10.702;2023-06-26T04:23:39;9.80;;;5.65;;
45620;SDS011;31345;51.522;10.702;2023-06-26T04:26:07;9.75;;;5.63;;
45620;SDS011;31345;51.522;10.702;2023-06-26T04:28:44;14.02;;;5.82;;
45620;SDS011;31345;51.522;10.702;2023-06-26T04:31:18;13.38;;;5.75;;
45620;SDS011;31345;51.522;10.702;2023-06-26T04:33:50;11.80;;;6.03;;
45620;SDS011;31345;51.522;10.702;2023-06-26T04:36:25;7.72;;;5.90;;
45620;SDS011;31345;51.522;10.702;2023-06-26T04:38:54;9.07;;;5.63;;
45620;SDS011;31345;51.522;10.702;2023-06-26T04:41:27;14.15;;;6.63;;
45620;SDS011;31345;51.522;10.702;2023-06-26T04:43:59;8.02;;;5.47;;
45620;SDS011;31345;51.522;10.702;2023-06-26T04:46:33;8.85;;;5.50;;
45620;SDS011;31345;51.522;10.702;2023-06-26T04:49:05;10.40;;;5.95;;
45620;SDS011;31345;51.522;10.702;2023-06-26T04:51:38;9.18;;;6.03;;
45620;SDS011;31345;51.522;10.702;2023-06-26T04:54:11;8.80;;;6.25;;
45620;SDS011;31345;51.522;10.702;2023-06-26T04:56:43;8.50;;;5.45;;
45620;SDS011;31345;51.522;10.702;2023-06-26T04:59:18;9.32;;;5.63;;
45620;SDS011;31345;51.522;10.702;2023-06-26T05:01:52;8.30;;;5.72;;
45620;SDS011;31345;51.522;10.702;2023-06-26T05:04:24;7.80;;;5.65;;
45620;SDS011;31345;51.522;10.702;2023-06-26T05:06:57;8.52;;;5.53;;
45620;SDS011;31345;51.522;10.702;2023-06-26T05:09:29;8.43;;;5.53;;
45620;SDS011;31345;51.522;10.702;2023-06-26T05:12:02;7.30;;;5.15;;
45620;SDS011;31345;51.522;10.702;2023-06-26T05:14:35;11.50;;;5.60;;
45620;SDS011;31345;51.522;10.702;2023-06-26T05:17:08;7.38;;;5.43;;
45620;SDS011;31345;51.522;10.702;2023-06-26T05:19:41;9.05;;;5.32;;
45620;SDS011;31345;51.522;10.702;2023-06-26T05:22:14;11.75;;;5.45;;
45620;SDS011;31345;51.522;10.702;2023-06-26T05:24:48;6.63;;;5.35;;
45620;SDS011;31345;51.522;10.702;2023-06-26T05:27:25;8.18;;;5.25;;
45620;SDS011;31345;51.522;10.702;2023-06-26T05:29:58;7.70;;;5.32;;
45620;SDS011;31345;51.522;10.702;2023-06-26T05:32:27;7.43;;;4.93;;
45620;SDS011;31345;51.522;10.702;2023-06-26T05:35:01;10.05;;;5.80;;
45620;SDS011;31345;51.522;10.702;2023-06-26T05:37:30;8.57;;;5.72;;
45620;SDS011;31345;51.522;10.702;2023-06-26T05:39:59;11.20;;;5.68;;
45620;SDS011;31345;51.522;10.702;2023-06-26T05:42:32;9.07;;;5.68;;
45620;SDS011;31345;51.522;10.702;2023-06-26T05:45:06;10.43;;;5.38;;
45620;SDS011;31345;51.522;10.702;2023-06-26T05:47:40;8.25;;;5.93;;
45620;SDS011;31345;51.522;10.702;2023-06-26T05:50:13;9.50;;;5.95;;
45620;SDS011;31345;51.522;10.702;2023-06-26T05:52:47;9.95;;;6.00;;
45620;SDS011;31345;51.522;10.702;2023-06-26T05:55:15;9.82;;;6.60;;
45620;SDS011;31345;51.522;10.702;2023-06-26T05:57:48;8.20;;;5.88;;
45620;SDS011;31345;51.522;10.702;2023-06-26T06:00:23;10.50;;;5.85;;
45620;SDS011;31345;51.522;10.702;2023-06-26T06:02:58;8.43;;;6.30;;
45620;SDS011;31345;51.522;10.702;2023-06-26T06:05:31;8.77;;;6.55;;
45620;SDS011;31345;51.522;10.702;2023-06-26T06:08:03;8.98;;;5.88;;
45620;SDS011;31345;51.522;10.702;2023-06-26T06:10:36;7.88;;;6.32;;
45620;SDS011;31345;51.522;10.702;2023-06-26T06:13:09;10.00;;;6.43;;
45620;SDS011;31345;51.522;10.702;2023-06-26T06:15:41;7.28;;;5.68;;
45620;SDS011;31345;51.522;10.702;2023-06-26T06:18:15;7.82;;;5.80;;
45620;SDS011;31345;51.522;10.702;2023-06-26T06:20:47;7.18;;;5.32;;
45620;SDS011;31345;51.522;10.702;2023-06-26T06:23:20;7.75;;;5.20;;
45620;SDS011;31345;51.522;10.702;2023-06-26T06:25:54;8.52;;;5.28;;
45620;SDS011;31345;51.522;10.702;2023-06-26T06:28:26;7.18;;;5.32;;
45620;SDS011;31345;51.522;10.702;2023-06-26T06:30:59;7.47;;;5.35;;
45620;SDS011;31345;51.522;10.702;2023-06-26T06:33:33;7.10;;;5.50;;
45620;SDS011;31345;51.522;10.702;2023-06-26T06:36:05;8.23;;;5.43;;
45620;SDS011;31345;51.522;10.702;2023-06-26T06:38:38;7.50;;;5.50;;
45620;SDS011;31345;51.522;10.702;2023-06-26T06:41:10;7.70;;;5.55;;
45620;SDS011;31345;51.522;10.702;2023-06-26T06:43:43;8.73;;;6.00;;
45620;SDS011;31345;51.522;10.702;2023-06-26T06:46:16;8.32;;;5.93;;
45620;SDS011;31345;51.522;10.702;2023-06-26T06:48:49;6.32;;;5.72;;
45620;SDS011;31345;51.522;10.702;2023-06-26T06:51:22;7.10;;;6.22;;
45620;SDS011;31345;51.522;10.702;2023-06-26T06:53:54;7.97;;;5.78;;
45620;SDS011;31345;51.522;10.702;2023-06-26T06:56:27;6.70;;;5.63;;
45620;SDS011;31345;51.522;10.702;2023-06-26T06:58:59;11.20;;;6.60;;
45620;SDS011;31345;51.522;10.702;2023-06-26T07:01:32;7.00;;;5.60;;
45620;SDS011;31345;51.522;10.702;2023-06-26T07:04:06;6.93;;;6.22;;
45620;SDS011;31345;51.522;10.702;2023-06-26T07:06:38;8.73;;;5.70;;
45620;SDS011;31345;51.522;10.702;2023-06-26T07:09:11;7.22;;;5.95;;
45620;SDS011;31345;51.522;10.702;2023-06-26T07:11:38;7.43;;;5.57;;
45620;SDS011;31345;51.522;10.702;2023-06-26T07:14:11;8.75;;;5.70;;
45620;SDS011;31345;51.522;10.702;2023-06-26T07:16:38;9.20;;;6.03;;
45620;SDS011;31345;51.522;10.702;2023-06-26T07:19:12;9.80;;;6.00;;
45620;SDS011;31345;51.522;10.702;2023-06-26T07:21:45;7.75;;;6.28;;
45620;SDS011;31345;51.522;10.702;2023-06-26T07:24:18;9.68;;;5.47;;
45620;SDS011;31345;51.522;10.702;2023-06-26T07:26:50;8.68;;;6.22;;
45620;SDS011;31345;51.522;10.702;2023-06-26T07:29:23;6.70;;;5.30;;
45620;SDS011;31345;51.522;10.702;2023-06-26T07:31:56;9.80;;;6.82;;
45620;SDS011;31345;51.522;10.702;2023-06-26T07:34:30;8.00;;;6.40;;
45620;SDS011;31345;51.522;10.702;2023-06-26T07:37:03;8.75;;;6.22;;
45620;SDS011;31345;51.522;10.702;2023-06-26T07:39:36;8.50;;;6.63;;
45620;SDS011;31345;51.522;10.702;2023-06-26T07:42:08;6.90;;;5.90;;
45620;SDS011;31345;51.522;10.702;2023-06-26T07:44:41;8.93;;;6.00;;
45620;SDS011;31345;51.522;10.702;2023-06-26T07:47:14;9.45;;;5.85;;
45620;SDS011;31345;51.522;10.702;2023-06-26T07:49:48;8.95;;;6.50;;
45620;SDS011;31345;51.522;10.702;2023-06-26T07:52:20;8.50;;;6.32;;
45620;SDS011;31345;51.522;10.702;2023-06-26T07:54:48;10.15;;;6.75;;
45620;SDS011;31345;51.522;10.702;2023-06-26T07:57:20;9.75;;;6.10;;
45620;SDS011;31345;51.522;10.702;2023-06-26T07:59:53;8.77;;;6.32;;
45620;SDS011;31345;51.522;10.702;2023-06-26T08:02:26;8.77;;;6.60;;
45620;SDS011;31345;51.522;10.702;2023-06-26T08:05:00;7.88;;;6.38;;
45620;SDS011;31345;51.522;10.702;2023-06-26T08:07:33;8.00;;;6.82;;
45620;SDS011;31345;51.522;10.702;2023-06-26T08:10:05;8.13;;;6.03;;
45620;SDS011;31345;51.522;10.702;2023-06-26T08:12:38;9.02;;;6.28;;
45620;SDS011;31345;51.522;10.702;2023-06-26T08:15:13;7.70;;;6.30;;
45620;SDS011;31345;51.522;10.702;2023-06-26T08:17:46;7.28;;;6.57;;
45620;SDS011;31345;51.522;10.702;2023-06-26T08:20:20;8.38;;;6.55;;
45620;SDS011;31345;51.522;10.702;2023-06-26T08:22:53;8.90;;;7.57;;
45620;SDS011;31345;51.522;10.702;2023-06-26T08:25:26;10.18;;;7.20;;
45620;SDS011;31345;51.522;10.702;2023-06-26T08:27:58;10.52;;;6.93;;
45620;SDS011;31345;51.522;10.702;2023-06-26T08:30:31;8.57;;;6.85;;
45620;SDS011;31345;51.522;10.702;2023-06-26T08:33:04;8.70;;;6.75;;
45620;SDS011;31345;51.522;10.702;2023-06-26T08:35:42;8.98;;;6.65;;
45620;SDS011;31345;51.522;10.702;2023-06-26T08:38:15;9.32;;;7.35;;
45620;SDS011;31345;51.522;10.702;2023-06-26T08:40:47;9.65;;;6.75;;
45620;SDS011;31345;51.522;10.702;2023-06-26T08:43:20;8.73;;;6.88;;
45620;SDS011;31345;51.522;10.702;2023-06-26T08:45:53;9.02;;;7.40;;
45620;SDS011;31345;51.522;10.702;2023-06-26T08:48:25;7.72;;;6.93;;
45620;SDS011;31345;51.522;10.702;2023-06-26T08:50:59;9.10;;;7.57;;
45620;SDS011;31345;51.522;10.702;2023-06-26T08:53:39;9.02;;;6.63;;
45620;SDS011;31345;51.522;10.702;2023-06-26T08:56:16;7.43;;;6.22;;
45620;SDS011;31345;51.522;10.702;2023-06-26T08:58:52;8.93;;;6.60;;
45620;SDS011;31345;51.522;10.702;2023-06-26T09:01:25;9.13;;;6.57;;
45620;SDS011;31345;51.522;10.702;2023-06-26T09:03:57;9.07;;;6.25;;
45620;SDS011;31345;51.522;10.702;2023-06-26T09:06:31;7.63;;;6.35;;
45620;SDS011;31345;51.522;10.702;2023-06-26T09:09:04;7.88;;;5.93;;
45620;SDS011;31345;51.522;10.702;2023-06-26T09:11:36;8.20;;;6.63;;
45620;SDS011;31345;51.522;10.702;2023-06-26T09:14:09;8.13;;;5.75;;
45620;SDS011;31345;51.522;10.702;2023-06-26T09:16:42;6.70;;;5.35;;
45620;SDS011;31345;51.522;10.702;2023-06-26T09:19:15;8.43;;;5.97;;
45620;SDS011;31345;51.522;10.702;2023-06-26T09:21:49;7.97;;;5.50;;
45620;SDS011;31345;51.522;10.702;2023-06-26T09:24:22;7.93;;;5.70;;
45620;SDS011;31345;51.522;10.702;2023-06-26T09:26:55;6.60;;;5.45;;
45620;SDS011;31345;51.522;10.702;2023-06-26T09:29:28;6.72;;;5.45;;
45620;SDS011;31345;51.522;10.702;2023-06-26T09:32:01;7.03;;;5.78;;
45620;SDS011;31345;51.522;10.702;2023-06-26T09:34:34;7.22;;;5.65;;
45620;SDS011;31345;51.522;10.702;2023-06-26T09:37:08;7.38;;;5.35;;
45620;SDS011;31345;51.522;10.702;2023-06-26T09:39:40;7.03;;;5.50;;
45620;SDS011;31345;51.522;10.702;2023-06-26T09:42:13;6.82;;;5.30;;
45620;SDS011;31345;51.522;10.702;2023-06-26T09:44:46;8.02;;;5.55;;
45620;SDS011;31345;51.522;10.702;2023-06-26T09:47:19;8.55;;;5.50;;
45620;SDS011;31345;51.522;10.702;2023-06-26T09:49:51;7.63;;;5.65;;
45620;SDS011;31345;51.522;10.702;2023-06-26T09:52:27;7.70;;;5.72;;
45620;SDS011;31345;51.522;10.702;2023-06-26T09:55:06;7.30;;;5.82;;
45620;SDS011;31345;51.522;10.702;2023-06-26T09:57:40;8.13;;;5.65;;
45620;SDS011;31345;51.522;10.702;2023-06-26T10:00:13;8.13;;;5.95;;
45620;SDS011;31345;51.522;10.702;2023-06-26T10:02:47;7.88;;;5.82;;
45620;SDS011;31345;51.522;10.702;2023-06-26T10:05:19;7.40;;;5.90;;
45620;SDS011;31345;51.522;10.702;2023-06-26T10:07:48;6.93;;;6.07;;
45620;SDS011;31345;51.522;10.702;2023-06-26T10:10:22;7.20;;;5.88;;
45620;SDS011;31345;51.522;10.702;2023-06-26T10:12:58;6.70;;;5.78;;
45620;SDS011;31345;51.522;10.702;2023-06-26T10:15:33;7.78;;;6.18;;
45620;SDS011;31345;51.522;10.702;2023-06-26T10:18:06;6.93;;;5.82;;
45620;SDS011;31345;51.522;10.702;2023-06-26T10:20:39;7.53;;;5.60;;
45620;SDS011;31345;51.522;10.702;2023-06-26T10:23:15;6.90;;;6.07;;
45620;SDS011;31345;51.522;10.702;2023-06-26T10:25:52;8.73;;;6.55;;
45620;SDS011;31345;51.522;10.702;2023-06-26T10:28:29;7.38;;;5.22;;
45620;SDS011;31345;51.522;10.702;2023-06-26T10:31:04;6.97;;;5.90;;
45620;SDS011;31345;51.522;10.702;2023-06-26T10:33:39;7.32;;;6.13;;
45620;SDS011;31345;51.522;10.702;2023-06-26T10:36:12;7.53;;;6.28;;
45620;SDS011;31345;51.522;10.702;2023-06-26T10:38:51;7.68;;;6.13;;
45620;SDS011;31345;51.522;10.702;2023-06-26T10:41:24;7.25;;;5.72;;
45620;SDS011;31345;51.522;10.702;2023-06-26T10:44:08;7.28;;;5.78;;
45620;SDS011;31345;51.522;10.702;2023-06-26T10:46:48;7.72;;;6.32;;
45620;SDS011;31345;51.522;10.702;2023-06-26T10:49:24;6.93;;;5.63;;
45620;SDS011;31345;51.522;10.702;2023-06-26T10:52:00;9.23;;;5.53;;
45620;SDS011;31345;51.522;10.702;2023-06-26T10:54:35;9.90;;;5.53;;
45620;SDS011;31345;51.522;10.702;2023-06-26T10:57:10;8.02;;;5.85;;
45620;SDS011;31345;51.522;10.702;2023-06-26T10:59:42;8.43;;;6.00;;
45620;SDS011;31345;51.522;10.702;2023-06-26T11:02:15;6.57;;;5.88;;
45620;SDS011;31345;51.522;10.702;2023-06-26T11:04:49;8.50;;;5.90;;
45620;SDS011;31345;51.522;10.702;2023-06-26T11:07:24;8.00;;;6.13;;
45620;SDS011;31345;51.522;10.702;2023-06-26T11:09:54;8.18;;;5.63;;
45620;SDS011;31345;51.522;10.702;2023-06-26T11:12:36;10.00;;;6.07;;
45620;SDS011;31345;51.522;10.702;2023-06-26T11:15:09;7.63;;;5.93;;
45620;SDS011;31345;51.522;10.702;2023-06-26T11:17:44;10.73;;;6.32;;
45620;SDS011;31345;51.522;10.702;2023-06-26T11:20:16;9.10;;;6.47;;
45620;SDS011;31345;51.522;10.702;2023-06-26T11:22:49;9.40;;;6.10;;
45620;SDS011;31345;51.522;10.702;2023-06-26T11:25:25;10.85;;;7.03;;
45620;SDS011;31345;51.522;10.702;2023-06-26T11:27:58;7.03;;;6.22;;
45620;SDS011;31345;51.522;10.702;2023-06-26T11:30:31;7.50;;;6.70;;
45620;SDS011;31345;51.522;10.702;2023-06-26T11:33:04;8.52;;;5.80;;
45620;SDS011;31345;51.522;10.702;2023-06-26T11:35:37;7.53;;;6.60;;
45620;SDS011;31345;51.522;10.702;2023-06-26T11:38:10;8.57;;;6.43;;
45620;SDS011;31345;51.522;10.702;2023-06-26T11:40:44;7.63;;;6.82;;
45620;SDS011;31345;51.522;10.702;2023-06-26T11:43:16;7.50;;;6.35;;
45620;SDS011;31345;51.522;10.702;2023-06-26T11:45:49;7.57;;;6.35;;
45620;SDS011;31345;51.522;10.702;2023-06-26T11:48:21;9.23;;;7.30;;
45620;SDS011;31345;51.522;10.702;2023-06-26T11:50:54;8.25;;;7.35;;
45620;SDS011;31345;51.522;10.702;2023-06-26T11:53:26;10.02;;;8.07;;
45620;SDS011;31345;51.522;10.702;2023-06-26T11:56:00;8.43;;;7.32;;
45620;SDS011;31345;51.522;10.702;2023-06-26T11:58:55;10.40;;;7.43;;
45620;SDS011;31345;51.522;10.702;2023-06-26T12:01:30;15.88;;;8.15;;
45620;SDS011;31345;51.522;10.702;2023-06-26T12:04:04;19.75;;;8.25;;
45620;SDS011;31345;51.522;10.702;2023-06-26T12:06:38;13.05;;;7.60;;
45620;SDS011;31345;51.522;10.702;2023-06-26T12:09:12;17.95;;;7.38;;
45620;SDS011;31345;51.522;10.702;2023-06-26T12:11:47;16.05;;;7.05;;
45620;SDS011;31345;51.522;10.702;2023-06-26T12:14:23;24.17;;;7.88;;
45620;SDS011;31345;51.522;10.702;2023-06-26T12:17:03;17.27;;;7.78;;
45620;SDS011;31345;51.522;10.702;2023-06-26T12:19:37;15.32;;;8.48;;
45620;SDS011;31345;51.522;10.702;2023-06-26T12:22:10;14.15;;;8.23;;
45620;SDS011;31345;51.522;10.702;2023-06-26T12:24:43;16.00;;;9.70;;
45620;SDS011;31345;51.522;10.702;2023-06-26T12:27:17;16.55;;;10.02;;
45620;SDS011;31345;51.522;10.702;2023-06-26T12:29:51;18.08;;;10.75;;
45620;SDS011;31345;51.522;10.702;2023-06-26T12:32:25;15.20;;;10.85;;
45620;SDS011;31345;51.522;10.702;2023-06-26T12:34:52;14.93;;;10.15;;
45620;SDS011;31345;51.522;10.702;2023-06-26T12:37:25;13.55;;;10.55;;
45620;SDS011;31345;51.522;10.702;2023-06-26T12:39:53;16.80;;;11.95;;
45620;SDS011;31345;51.522;10.702;2023-06-26T12:42:28;16.73;;;11.15;;
45620;SDS011;31345;51.522;10.702;2023-06-26T12:45:09;15.35;;;11.73;;
45620;SDS011;31345;51.522;10.702;2023-06-26T12:47:38;14.43;;;10.65;;
45620;SDS011;31345;51.522;10.702;2023-06-26T12:50:07;15.50;;;10.98;;
45620;SDS011;31345;51.522;10.702;2023-06-26T12:52:40;16.33;;;11.93;;
45620;SDS011;31345;51.522;10.702;2023-06-26T12:55:08;13.70;;;11.05;;
45620;SDS011;31345;51.522;10.702;2023-06-26T12:57:37;15.52;;;11.25;;
45620;SDS011;31345;51.522;10.702;2023-06-26T13:00:10;13.48;;;11.45;;
45620;SDS011;31345;51.522;10.702;2023-06-26T13:02:44;13.32;;;10.35;;
45620;SDS011;31345;51.522;10.702;2023-06-26T13:05:16;13.10;;;10.13;;
45620;SDS011;31345;51.522;10.702;2023-06-26T13:07:49;12.52;;;9.75;;
45620;SDS011;31345;51.522;10.702;2023-06-26T13:10:21;12.98;;;10.32;;
45620;SDS011;31345;51.522;10.702;2023-06-26T13:12:50;11.38;;;9.38;;
45620;SDS011;31345;51.522;10.702;2023-06-26T13:15:18;15.77;;;10.98;;
45620;SDS011;31345;51.522;10.702;2023-06-26T13:17:50;11.80;;;10.10;;
45620;SDS011;31345;51.522;10.702;2023-06-26T13:20:23;15.23;;;10.85;;
45620;SDS011;31345;51.522;10.702;2023-06-26T13:22:55;15.43;;;9.52;;
45620;SDS011;31345;51.522;10.702;2023-06-26T13:25:28;13.57;;;10.35;;
45620;SDS011;31345;51.522;10.702;2023-06-26T13:28:03;16.00;;;11.20;;
45620;SDS011;31345;51.522;10.702;2023-06-26T13:30:33;11.63;;;10.43;;
45620;SDS011;31345;51.522;10.702;2023-06-26T13:33:07;14.88;;;11.52;;
45620;SDS011;31345;51.522;10.702;2023-06-26T13:35:37;16.90;;;11.27;;
45620;SDS011;31345;51.522;10.702;2023-06-26T13:38:09;12.05;;;10.07;;
45620;SDS011;31345;51.522;10.702;2023-06-26T13:40:42;16.58;;;11.50;;
45620;SDS011;31345;51.522;10.702;2023-06-26T13:43:11;13.15;;;10.02;;
45620;SDS011;31345;51.522;10.702;2023-06-26T13:45:44;13.40;;;9.88;;
45620;SDS011;31345;51.522;10.702;2023-06-26T13:48:16;28.13;;;14.60;;
45620;SDS011;31345;51.522;10.702;2023-06-26T13:50:49;15.73;;;9.90;;
45620;SDS011;31345;51.522;10.702;2023-06-26T13:53:22;11.68;;;9.80;;
45620;SDS011;31345;51.522;10.702;2023-06-26T13:55:54;12.23;;;9.32;;
45620;SDS011;31345;51.522;10.702;2023-06-26T13:58:28;15.73;;;10.05;;
45620;SDS011;31345;51.522;10.702;2023-06-26T14:00:58;15.95;;;9.65;;
45620;SDS011;31345;51.522;10.702;2023-06-26T14:03:26;13.38;;;9.07;;
45620;SDS011;31345;51.522;10.702;2023-06-26T14:05:54;13.50;;;9.55;;
45620;SDS011;31345;51.522;10.702;2023-06-26T14:08:27;13.05;;;9.38;;
45620;SDS011;31345;51.522;10.702;2023-06-26T14:10:59;12.13;;;9.25;;
45620;SDS011;31345;51.522;10.702;2023-06-26T14:13:33;10.90;;;9.20;;
45620;SDS011;31345;51.522;10.702;2023-06-26T14:16:06;13.20;;;8.95;;
45620;SDS011;31345;51.522;10.702;2023-06-26T14:18:38;13.70;;;9.18;;
45620;SDS011;31345;51.522;10.702;2023-06-26T14:21:05;12.23;;;8.48;;
45620;SDS011;31345;51.522;10.702;2023-06-26T14:23:38;12.25;;;9.10;;
45620;SDS011;31345;51.522;10.702;2023-06-26T14:26:10;14.10;;;9.73;;
45620;SDS011;31345;51.522;10.702;2023-06-26T14:28:44;11.48;;;8.90;;
45620;SDS011;31345;51.522;10.702;2023-06-26T14:31:17;10.43;;;9.20;;
45620;SDS011;31345;51.522;10.702;2023-06-26T14:33:50;17.52;;;10.32;;
45620;SDS011;31345;51.522;10.702;2023-06-26T14:36:22;14.15;;;9.55;;
45620;SDS011;31345;51.522;10.702;2023-06-26T14:38:50;12.23;;;8.98;;
45620;SDS011;31345;51.522;10.702;2023-06-26T14:41:22;10.93;;;8.88;;
45620;SDS011;31345;51.522;10.702;2023-06-26T14:43:57;12.20;;;8.55;;
45620;SDS011;31345;51.522;10.702;2023-06-26T14:46:24;12.88;;;9.07;;
45620;SDS011;31345;51.522;10.702;2023-06-26T14:48:57;10.48;;;8.25;;
45620;SDS011;31345;51.522;10.702;2023-06-26T14:51:24;11.88;;;8.93;;
45620;SDS011;31345;51.522;10.702;2023-06-26T14:53:58;11.27;;;8.35;;
45620;SDS011;31345;51.522;10.702;2023-06-26T14:56:30;13.85;;;9.55;;
45620;SDS011;31345;51.522;10.702;2023-06-26T14:59:04;12.18;;;8.60;;
45620;SDS011;31345;51.522;10.702;2023-06-26T15:01:38;14.45;;;9.02;;